Time;durP1;ratioP1;P1;durP2;ratioP2;P2;SDS_P1;SDS_P2;PMS_P1;PMS_P2;Temp;Humidity;BMP_temperature;BMP_pressure;BME280_temperature;BME280_humidity;BME280_pressure;Samples;Min_cycle;Max_cycle;Signal;HPM_P1;HPM_P2
2021/12/22 00:02:14;;;;;;;155.70;45.65;;;;;;;;;;5052341;28;20201;-66
2021/12/22 00:04:45;;;;;;;177.57;44.00;;;;;;;;;;5052770;28;20306;-67
2021/12/22 00:07:12;;;;;;;143.65;38.03;;;;;;;;;;5052564;28;20209;-66
2021/12/22 00:09:40;;;;;;;143.05;41.47;;;;;;;;;;5052362;28;20216;-66
2021/12/22 00:12:08;;;;;;;71.13;26.88;;;;;;;;;;5052346;28;20233;-66
2021/12/22 00:14:37;;;;;;;75.95;28.80;;;;;;;;;;5045693;28;20241;-67
2021/12/22 00:17:05;;;;;;;69.43;27.17;;;;;;;;;;5052105;28;20205;-66
2021/12/22 00:19:33;;;;;;;66.82;25.40;;;;;;;;;;5052127;28;20224;-67
2021/12/22 00:22:00;;;;;;;88.50;33.05;;;;;;;;;;5052048;28;20205;-66
2021/12/22 00:24:27;;;;;;;62.70;26.05;;;;;;;;;;5052040;28;20201;-67
2021/12/22 00:26:56;;;;;;;66.97;26.45;;;;;;;;;;5052236;28;20240;-67
2021/12/22 00:29:24;;;;;;;72.22;26.92;;;;;;;;;;5052325;28;20213;-66
2021/12/22 00:32:10;;;;;;;50.00;20.33;;;;;;;;;;5052468;28;20248;-66
2021/12/22 00:34:45;;;;;;;54.92;21.55;;;;;;;;;;5052633;28;20201;-66
2021/12/22 00:37:13;;;;;;;92.45;29.67;;;;;;;;;;5052162;28;20212;-66
2021/12/22 00:39:40;;;;;;;88.97;31.88;;;;;;;;;;5051885;28;20684;-67
2021/12/22 00:42:08;;;;;;;95.10;32.40;;;;;;;;;;5051902;28;20212;-66
2021/12/22 00:44:36;;;;;;;81.03;29.75;;;;;;;;;;5052249;28;20245;-67
2021/12/22 00:47:05;;;;;;;76.63;27.88;;;;;;;;;;5045041;28;20235;-66
2021/12/22 00:49:32;;;;;;;89.38;30.48;;;;;;;;;;5051842;28;20215;-66
2021/12/22 00:52:01;;;;;;;90.03;32.78;;;;;;;;;;5051362;28;20202;-66
2021/12/22 00:54:29;;;;;;;108.40;32.38;;;;;;;;;;5051515;28;20706;-66
2021/12/22 00:57:03;;;;;;;92.80;30.48;;;;;;;;;;5051397;28;20256;-67
2021/12/22 00:59:30;;;;;;;75.00;27.15;;;;;;;;;;5051801;28;20215;-67
2021/12/22 01:01:58;;;;;;;115.72;34.20;;;;;;;;;;5051504;28;20291;-66
2021/12/22 01:04:27;;;;;;;89.25;29.63;;;;;;;;;;5051272;28;20214;-69
2021/12/22 01:06:54;;;;;;;82.78;27.92;;;;;;;;;;5051173;28;20915;-66
2021/12/22 01:09:22;;;;;;;96.00;32.45;;;;;;;;;;5051284;28;20212;-67
2021/12/22 01:11:50;;;;;;;93.20;31.83;;;;;;;;;;5051374;28;20287;-66
2021/12/22 01:14:17;;;;;;;97.68;30.50;;;;;;;;;;5051085;28;20212;-66
2021/12/22 01:16:48;;;;;;;95.55;30.90;;;;;;;;;;5051078;28;20219;-66
2021/12/22 01:19:21;;;;;;;99.38;33.75;;;;;;;;;;5051067;28;20240;-67
2021/12/22 01:21:56;;;;;;;102.82;34.47;;;;;;;;;;5050740;28;20213;-66
2021/12/22 01:24:31;;;;;;;97.65;31.17;;;;;;;;;;5051165;28;20201;-66
2021/12/22 01:27:05;;;;;;;82.03;28.40;;;;;;;;;;5050997;28;20228;-66
2021/12/22 01:29:32;;;;;;;72.13;27.75;;;;;;;;;;5051381;28;20258;-65
2021/12/22 01:32:00;;;;;;;94.78;32.95;;;;;;;;;;5050986;28;20622;-66
2021/12/22 01:34:28;;;;;;;96.80;31.33;;;;;;;;;;5050807;28;20210;-67
2021/12/22 01:36:57;;;;;;;73.63;26.30;;;;;;;;;;5050849;28;20205;-67
2021/12/22 01:39:25;;;;;;;48.45;21.83;;;;;;;;;;5050822;28;20670;-66
2021/12/22 01:41:52;;;;;;;92.30;29.67;;;;;;;;;;5051142;28;20209;-68
2021/12/22 01:44:27;;;;;;;68.05;26.50;;;;;;;;;;5051022;28;20212;-67
2021/12/22 01:49:49;;;;;;;106.72;33.80;;;;;;;;;;5051124;28;20680;-66
2021/12/22 01:52:18;;;;;;;87.68;29.70;;;;;;;;;;5050869;28;20213;-67
2021/12/22 01:54:49;;;;;;;62.95;23.95;;;;;;;;;;5050516;28;20244;-67
2021/12/22 01:57:17;;;;;;;66.53;26.70;;;;;;;;;;5050956;28;20702;-67
2021/12/22 01:59:47;;;;;;;126.35;36.22;;;;;;;;;;5050650;28;20237;-68
2021/12/22 02:02:16;;;;;;;58.92;25.15;;;;;;;;;;5044270;28;20212;-66
2021/12/22 02:04:43;;;;;;;121.47;35.65;;;;;;;;;;5050555;28;20213;-69
2021/12/22 02:07:12;;;;;;;135.30;38.22;;;;;;;;;;5050658;28;20323;-67
2021/12/22 02:10:02;;;;;;;169.40;41.53;;;;;;;;;;5050803;28;20267;-66
2021/12/22 02:12:33;;;;;;;14.20;4.15;;;;;;;;;;5043869;28;20205;-66
2021/12/22 02:15:01;;;;;;;34.47;13.35;;;;;;;;;;5050502;28;20209;-68
2021/12/22 02:17:28;;;;;;;64.00;21.23;;;;;;;;;;5050431;28;20209;-66
2021/12/22 02:19:57;;;;;;;38.05;13.27;;;;;;;;;;5050214;28;20205;-68
2021/12/22 02:22:24;;;;;;;24.20;4.88;;;;;;;;;;5050615;28;20213;-66
2021/12/22 02:24:55;;;;;;;20.55;2.70;;;;;;;;;;5050605;28;20227;-67
2021/12/22 02:27:29;;;;;;;20.63;4.22;;;;;;;;;;5050331;28;20327;-66
2021/12/22 02:30:00;;;;;;;50.67;17.50;;;;;;;;;;5050346;28;20292;-67
2021/12/22 02:32:55;;;;;;;46.58;22.67;;;;;;;;;;5050579;28;20212;-66
2021/12/22 02:35:37;;;;;;;42.70;20.42;;;;;;;;;;5050404;28;20274;-67
2021/12/22 02:38:07;;;;;;;33.20;17.83;;;;;;;;;;5050177;28;20216;-66
2021/12/22 02:40:34;;;;;;;34.33;17.70;;;;;;;;;;5050218;28;20259;-66
2021/12/22 02:43:05;;;;;;;36.63;13.45;;;;;;;;;;5053981;28;20231;-66
2021/12/22 02:45:34;;;;;;;57.53;24.63;;;;;;;;;;5054080;28;20215;-67
2021/12/22 02:48:02;;;;;;;55.67;25.05;;;;;;;;;;5053645;28;20208;-66
2021/12/22 02:50:32;;;;;;;54.08;26.98;;;;;;;;;;5053887;28;20209;-66
2021/12/22 02:53:05;;;;;;;43.13;19.77;;;;;;;;;;5053772;28;20201;-66
2021/12/22 02:55:44;;;;;;;31.35;17.23;;;;;;;;;;5053962;28;20290;-66
2021/12/22 02:58:15;;;;;;;53.90;20.00;;;;;;;;;;5053449;28;20229;-66
2021/12/22 03:01:02;;;;;;;42.92;19.17;;;;;;;;;;5053818;28;20201;-67
2021/12/22 03:03:46;;;;;;;46.83;19.77;;;;;;;;;;5053723;28;20751;-66
2021/12/22 03:06:23;;;;;;;44.95;19.88;;;;;;;;;;5053734;28;20316;-66
2021/12/22 03:08:50;;;;;;;40.20;18.83;;;;;;;;;;5053434;28;20213;-66
2021/12/22 03:11:18;;;;;;;35.35;16.75;;;;;;;;;;5053485;28;20699;-66
2021/12/22 03:13:45;;;;;;;22.77;6.57;;;;;;;;;;5053114;28;20225;-68
2021/12/22 03:16:12;;;;;;;55.25;21.90;;;;;;;;;;5053682;28;20209;-66
2021/12/22 03:18:40;;;;;;;56.38;22.77;;;;;;;;;;5053322;28;20205;-66
2021/12/22 03:21:18;;;;;;;49.58;22.00;;;;;;;;;;5053339;28;20588;-66
2021/12/22 03:23:48;;;;;;;51.83;22.05;;;;;;;;;;5052997;28;20241;-67
2021/12/22 03:26:17;;;;;;;55.30;23.00;;;;;;;;;;5053002;28;20288;-68
2021/12/22 03:28:45;;;;;;;59.05;24.98;;;;;;;;;;5053579;28;20209;-67
2021/12/22 03:31:14;;;;;;;103.70;33.70;;;;;;;;;;5053441;28;20292;-66
2021/12/22 03:33:42;;;;;;;225.18;48.95;;;;;;;;;;5053373;28;20382;-66
2021/12/22 03:36:10;;;;;;;197.13;44.85;;;;;;;;;;5052916;28;20339;-66
2021/12/22 03:38:37;;;;;;;195.73;43.72;;;;;;;;;;5052835;28;20639;-66
2021/12/22 03:41:07;;;;;;;223.35;47.80;;;;;;;;;;5052806;28;20205;-66
2021/12/22 03:43:35;;;;;;;213.77;48.90;;;;;;;;;;5053252;28;20197;-66
2021/12/22 03:46:02;;;;;;;228.13;50.50;;;;;;;;;;5052848;28;20257;-66
2021/12/22 03:48:30;;;;;;;206.30;45.50;;;;;;;;;;5052898;28;20621;-66
2021/12/22 03:50:58;;;;;;;174.57;41.30;;;;;;;;;;5052925;28;20655;-67
2021/12/22 03:53:25;;;;;;;192.63;43.70;;;;;;;;;;5052534;28;20729;-66
2021/12/22 03:55:53;;;;;;;195.27;45.22;;;;;;;;;;5052524;28;20244;-66
2021/12/22 03:58:22;;;;;;;234.20;48.05;;;;;;;;;;5052170;28;20225;-66
2021/12/22 04:00:51;;;;;;;197.13;43.22;;;;;;;;;;5052782;28;20209;-66
2021/12/22 04:03:22;;;;;;;207.85;44.42;;;;;;;;;;5052461;28;20635;-66
2021/12/22 04:05:52;;;;;;;226.52;48.92;;;;;;;;;;5052154;28;20209;-67
2021/12/22 04:08:19;;;;;;;201.75;44.08;;;;;;;;;;5052592;28;20594;-67
2021/12/22 04:10:47;;;;;;;197.02;45.13;;;;;;;;;;5052762;28;20241;-66
2021/12/22 04:13:15;;;;;;;188.38;44.10;;;;;;;;;;5052530;28;20216;-66
2021/12/22 04:15:44;;;;;;;23.88;12.52;;;;;;;;;;5052225;28;20236;-67
2021/12/22 04:18:12;;;;;;;39.90;18.52;;;;;;;;;;5052164;28;20251;-67
2021/12/22 04:20:40;;;;;;;27.65;12.15;;;;;;;;;;5052092;28;20205;-66
2021/12/22 04:23:07;;;;;;;109.65;32.35;;;;;;;;;;5052107;28;20635;-66
2021/12/22 04:25:35;;;;;;;73.40;26.00;;;;;;;;;;5052029;28;20208;-66
2021/12/22 04:28:07;;;;;;;108.43;36.75;;;;;;;;;;5051962;28;20256;-67
2021/12/22 04:30:35;;;;;;;92.30;29.80;;;;;;;;;;5052025;28;20213;-66
2021/12/22 04:33:04;;;;;;;77.50;30.05;;;;;;;;;;5051677;28;20209;-66
2021/12/22 04:35:32;;;;;;;67.78;27.75;;;;;;;;;;5052123;28;20209;-67
2021/12/22 04:37:59;;;;;;;81.38;33.38;;;;;;;;;;5051676;28;20564;-66
2021/12/22 04:40:26;;;;;;;102.10;29.15;;;;;;;;;;5051958;28;20213;-66
2021/12/22 04:42:54;;;;;;;82.57;30.55;;;;;;;;;;5051741;28;20216;-66
2021/12/22 04:45:21;;;;;;;141.85;35.70;;;;;;;;;;5051707;28;20241;-67
2021/12/22 04:47:51;;;;;;;109.32;39.22;;;;;;;;;;5051391;28;20232;-66
2021/12/22 04:50:21;;;;;;;89.28;30.85;;;;;;;;;;5051606;28;20388;-66
2021/12/22 04:52:54;;;;;;;152.95;37.95;;;;;;;;;;5051686;28;20205;-66
2021/12/22 04:55:22;;;;;;;212.95;48.50;;;;;;;;;;5051706;28;20233;-66
2021/12/22 04:57:50;;;;;;;243.57;50.80;;;;;;;;;;5051095;28;20318;-66
2021/12/22 05:00:18;;;;;;;214.25;46.55;;;;;;;;;;5051654;28;20204;-66
2021/12/22 05:02:45;;;;;;;221.75;46.00;;;;;;;;;;5051527;28;20209;-66
2021/12/22 05:05:13;;;;;;;214.65;45.05;;;;;;;;;;5050909;28;20211;-66
2021/12/22 05:07:43;;;;;;;211.73;46.20;;;;;;;;;;5051436;28;20323;-66
2021/12/22 05:10:10;;;;;;;206.02;44.28;;;;;;;;;;5051305;28;20209;-66
2021/12/22 05:12:38;;;;;;;202.88;44.28;;;;;;;;;;5050986;28;20220;-66
2021/12/22 05:15:06;;;;;;;210.15;44.55;;;;;;;;;;5051166;28;20206;-66
2021/12/22 05:18:11;;;;;;;171.48;39.30;;;;;;;;;;5051075;28;20295;-66
2021/12/22 05:20:37;;;;;;;159.25;39.80;;;;;;;;;;5050873;28;20640;-66
2021/12/22 05:23:06;;;;;;;158.25;41.30;;;;;;;;;;5051143;28;20221;-66
2021/12/22 05:25:34;;;;;;;155.57;38.10;;;;;;;;;;5051285;28;20291;-66
2021/12/22 05:28:01;;;;;;;181.88;45.63;;;;;;;;;;5050841;28;20241;-66
2021/12/22 05:30:29;;;;;;;169.93;41.42;;;;;;;;;;5051087;28;20205;-66
2021/12/22 05:32:56;;;;;;;162.05;39.53;;;;;;;;;;5051019;28;20270;-69
2021/12/22 05:35:24;;;;;;;173.02;39.67;;;;;;;;;;5050667;28;20205;-67
2021/12/22 05:37:52;;;;;;;167.55;43.20;;;;;;;;;;5050728;28;20674;-67
2021/12/22 05:40:21;;;;;;;158.02;38.05;;;;;;;;;;5051071;28;20241;-66
2021/12/22 05:42:48;;;;;;;162.95;38.53;;;;;;;;;;5050705;28;20201;-66
2021/12/22 05:45:16;;;;;;;167.38;39.65;;;;;;;;;;5050897;28;20778;-66
2021/12/22 05:47:43;;;;;;;176.10;40.63;;;;;;;;;;5050637;28;20225;-66
2021/12/22 05:50:11;;;;;;;150.10;37.35;;;;;;;;;;5050802;28;20628;-66
2021/12/22 05:52:38;;;;;;;153.10;37.58;;;;;;;;;;5050947;28;20654;-66
2021/12/22 05:55:06;;;;;;;158.98;39.08;;;;;;;;;;5050388;28;20236;-66
2021/12/22 05:57:35;;;;;;;157.45;39.28;;;;;;;;;;5050541;28;20256;-67
2021/12/22 06:00:02;;;;;;;162.90;41.92;;;;;;;;;;5050467;28;20609;-67
2021/12/22 06:02:29;;;;;;;116.07;34.95;;;;;;;;;;5050488;28;20201;-66
2021/12/22 06:04:57;;;;;;;115.90;33.80;;;;;;;;;;5050740;28;20212;-66
2021/12/22 06:07:24;;;;;;;129.27;35.50;;;;;;;;;;5050363;28;20233;-66
2021/12/22 06:09:52;;;;;;;123.72;34.45;;;;;;;;;;5050206;28;20209;-66
2021/12/22 06:12:19;;;;;;;121.25;34.55;;;;;;;;;;5050408;28;20213;-66
2021/12/22 06:14:48;;;;;;;158.02;39.05;;;;;;;;;;5050386;28;20219;-66
2021/12/22 06:17:15;;;;;;;142.48;38.78;;;;;;;;;;5052853;28;20223;-66
2021/12/22 06:19:43;;;;;;;153.77;40.33;;;;;;;;;;5054727;28;20205;-66
2021/12/22 06:22:10;;;;;;;147.38;38.45;;;;;;;;;;5054377;28;20720;-66
2021/12/22 06:24:38;;;;;;;164.80;39.13;;;;;;;;;;5054357;28;20616;-66
2021/12/22 06:27:05;;;;;;;149.15;38.35;;;;;;;;;;5054284;28;20229;-66
2021/12/22 06:29:33;;;;;;;216.23;45.72;;;;;;;;;;5054193;28;20233;-67
2021/12/22 06:32:01;;;;;;;226.18;51.42;;;;;;;;;;5054166;28;20201;-66
2021/12/22 06:34:29;;;;;;;251.73;49.85;;;;;;;;;;5054459;28;20215;-66
2021/12/22 06:36:56;;;;;;;241.00;49.08;;;;;;;;;;5054222;28;20213;-68
2021/12/22 06:39:24;;;;;;;260.35;50.63;;;;;;;;;;5054217;28;20216;-66
2021/12/22 06:41:51;;;;;;;307.58;68.45;;;;;;;;;;5047112;28;20710;-67
2021/12/22 06:44:19;;;;;;;297.65;59.40;;;;;;;;;;5053815;28;20212;-67
2021/12/22 06:46:46;;;;;;;311.80;57.10;;;;;;;;;;5054094;28;20209;-69
2021/12/22 06:49:15;;;;;;;295.23;59.05;;;;;;;;;;5054005;28;20634;-67
2021/12/22 06:51:42;;;;;;;316.38;60.10;;;;;;;;;;5053973;28;20592;-67
2021/12/22 06:54:10;;;;;;;295.23;59.55;;;;;;;;;;5053532;28;20227;-67
2021/12/22 06:56:38;;;;;;;297.13;62.22;;;;;;;;;;5053592;28;20332;-67
2021/12/22 06:59:05;;;;;;;325.30;64.63;;;;;;;;;;5053677;28;20705;-67
2021/12/22 07:01:34;;;;;;;336.23;69.50;;;;;;;;;;5047010;28;20301;-67
2021/12/22 07:04:03;;;;;;;323.27;63.30;;;;;;;;;;5053637;28;20612;-67
2021/12/22 07:06:32;;;;;;;325.00;62.53;;;;;;;;;;5053679;28;20209;-66
2021/12/22 07:08:59;;;;;;;352.48;64.32;;;;;;;;;;5053565;28;20229;-67
2021/12/22 07:11:27;;;;;;;376.30;65.00;;;;;;;;;;5053477;28;20241;-68
2021/12/22 07:13:54;;;;;;;343.23;76.10;;;;;;;;;;5053044;28;20208;-67
2021/12/22 07:16:22;;;;;;;379.45;72.57;;;;;;;;;;5053452;28;20208;-68
2021/12/22 07:18:49;;;;;;;362.30;106.60;;;;;;;;;;5053423;28;20243;-68
2021/12/22 07:21:16;;;;;;;345.08;72.88;;;;;;;;;;5053159;28;20209;-69
2021/12/22 07:23:45;;;;;;;411.35;75.28;;;;;;;;;;5053052;28;20231;-69
2021/12/22 07:26:14;;;;;;;423.40;79.80;;;;;;;;;;5053361;28;20209;-68
2021/12/22 07:28:42;;;;;;;410.65;75.22;;;;;;;;;;5052675;28;20233;-67
2021/12/22 07:31:09;;;;;;;414.50;75.63;;;;;;;;;;5053007;28;20201;-68
2021/12/22 07:33:37;;;;;;;403.27;72.72;;;;;;;;;;5052988;28;20224;-68
2021/12/22 07:36:06;;;;;;;403.20;73.95;;;;;;;;;;5052831;28;20206;-67
2021/12/22 07:38:36;;;;;;;407.30;74.63;;;;;;;;;;5052916;28;20214;-67
2021/12/22 07:41:05;;;;;;;397.27;70.63;;;;;;;;;;5053092;28;20209;-68
2021/12/22 07:43:33;;;;;;;394.58;69.57;;;;;;;;;;5053019;28;20208;-67
2021/12/22 07:46:00;;;;;;;380.73;69.43;;;;;;;;;;5052707;28;20237;-67
2021/12/22 07:48:28;;;;;;;21.25;4.85;;;;;;;;;;5052642;28;20709;-67
2021/12/22 07:50:56;;;;;;;293.67;64.60;;;;;;;;;;5052672;28;20236;-67
2021/12/22 07:53:24;;;;;;;361.98;65.68;;;;;;;;;;5053274;28;20235;-67
2021/12/22 07:55:53;;;;;;;256.90;58.92;;;;;;;;;;5052111;28;20295;-67
2021/12/22 07:58:23;;;;;;;361.98;61.50;;;;;;;;;;5052480;28;20257;-67
2021/12/22 08:00:50;;;;;;;360.80;62.63;;;;;;;;;;5052560;28;20291;-67
2021/12/22 08:03:18;;;;;;;267.02;55.97;;;;;;;;;;5052545;28;20666;-67
2021/12/22 08:05:46;;;;;;;165.13;56.75;;;;;;;;;;5052577;28;20213;-68
2021/12/22 08:08:13;;;;;;;345.92;110.80;;;;;;;;;;5052307;28;20239;-67
2021/12/22 08:10:41;;;;;;;20.95;5.28;;;;;;;;;;5052306;28;20201;-67
2021/12/22 08:13:08;;;;;;;20.70;5.88;;;;;;;;;;5052395;28;20690;-69
2021/12/22 08:15:38;;;;;;;21.02;4.40;;;;;;;;;;5052459;28;20205;-67
2021/12/22 08:18:05;;;;;;;27.63;5.32;;;;;;;;;;5052041;28;20225;-67
2021/12/22 08:20:32;;;;;;;34.40;11.55;;;;;;;;;;5052010;28;20673;-67
2021/12/22 08:23:00;;;;;;;52.70;17.13;;;;;;;;;;5052293;28;20560;-68
2021/12/22 08:25:28;;;;;;;36.80;16.48;;;;;;;;;;5052256;28;20707;-66
2021/12/22 08:27:55;;;;;;;38.10;14.57;;;;;;;;;;5051968;28;20328;-67
2021/12/22 08:30:23;;;;;;;108.70;35.40;;;;;;;;;;5051964;28;20209;-67
2021/12/22 08:32:51;;;;;;;20.13;6.07;;;;;;;;;;5051885;28;20588;-67
2021/12/22 08:35:20;;;;;;;19.02;4.47;;;;;;;;;;5052222;28;20613;-67
2021/12/22 08:40:32;;;;;;;20.95;7.50;;;;;;;;;;5051144;28;20677;-67
2021/12/22 08:43:00;;;;;;;21.02;7.13;;;;;;;;;;5051666;28;20213;-67
2021/12/22 08:45:27;;;;;;;23.90;6.50;;;;;;;;;;5051780;28;20208;-68
2021/12/22 08:47:56;;;;;;;25.70;7.43;;;;;;;;;;5051360;28;20225;-67
2021/12/22 08:50:24;;;;;;;22.20;6.55;;;;;;;;;;5051484;28;20212;-67
2021/12/22 08:52:54;;;;;;;27.88;8.50;;;;;;;;;;5051612;28;20214;-68
2021/12/22 08:55:21;;;;;;;24.63;7.72;;;;;;;;;;5051498;28;20804;-68
2021/12/22 08:57:49;;;;;;;26.85;9.57;;;;;;;;;;5051190;28;20260;-67
2021/12/22 09:00:17;;;;;;;26.48;7.63;;;;;;;;;;5051562;28;20216;-68
2021/12/22 09:02:45;;;;;;;24.08;7.88;;;;;;;;;;5051448;28;20209;-67
2021/12/22 09:05:14;;;;;;;27.52;8.25;;;;;;;;;;5051441;28;20205;-67
2021/12/22 09:07:42;;;;;;;78.10;23.60;;;;;;;;;;5051191;28;20229;-67
2021/12/22 09:10:10;;;;;;;23.45;7.40;;;;;;;;;;5050809;28;20212;-67
2021/12/22 09:12:37;;;;;;;108.80;41.13;;;;;;;;;;5051415;28;20206;-69
2021/12/22 09:15:05;;;;;;;23.23;6.45;;;;;;;;;;5051377;28;20634;-67
2021/12/22 09:17:33;;;;;;;27.58;9.10;;;;;;;;;;5051261;28;20205;-67
2021/12/22 09:20:00;;;;;;;27.60;8.65;;;;;;;;;;5050841;28;20209;-67
2021/12/22 09:22:29;;;;;;;21.15;6.07;;;;;;;;;;5050820;28;20211;-67
2021/12/22 09:24:56;;;;;;;21.13;7.00;;;;;;;;;;5050933;28;20219;-67
2021/12/22 09:27:24;;;;;;;21.40;5.50;;;;;;;;;;5050839;28;20208;-67
2021/12/22 09:29:51;;;;;;;31.30;8.35;;;;;;;;;;5050599;28;20237;-68
2021/12/22 09:32:21;;;;;;;20.52;5.50;;;;;;;;;;5050793;28;20205;-67
2021/12/22 09:34:50;;;;;;;23.08;5.07;;;;;;;;;;5050899;28;20205;-67
2021/12/22 09:37:18;;;;;;;21.83;5.85;;;;;;;;;;5050746;28;20681;-67
2021/12/22 09:39:47;;;;;;;23.52;6.13;;;;;;;;;;5050804;28;20747;-68
2021/12/22 09:42:14;;;;;;;21.08;6.38;;;;;;;;;;5050988;28;20201;-67
2021/12/22 09:44:45;;;;;;;26.25;6.85;;;;;;;;;;5050650;28;20224;-67
2021/12/22 09:47:13;;;;;;;21.73;5.47;;;;;;;;;;5050639;28;20212;-67
2021/12/22 09:50:05;;;;;;;22.63;6.28;;;;;;;;;;5050457;28;20318;-67
2021/12/22 09:52:32;;;;;;;23.30;5.50;;;;;;;;;;5050753;28;20201;-68
2021/12/22 09:55:01;;;;;;;22.90;4.93;;;;;;;;;;5050722;28;20243;-66
2021/12/22 09:57:29;;;;;;;18.40;4.20;;;;;;;;;;5050099;28;20446;-67
2021/12/22 09:59:58;;;;;;;23.95;6.28;;;;;;;;;;5050119;28;20696;-68
2021/12/22 10:02:29;;;;;;;30.35;7.55;;;;;;;;;;5050810;28;20288;-67
2021/12/22 10:04:56;;;;;;;22.80;5.13;;;;;;;;;;5050721;28;20201;-67
2021/12/22 10:07:26;;;;;;;18.77;4.85;;;;;;;;;;5050623;28;20212;-67
2021/12/22 10:09:55;;;;;;;16.38;3.80;;;;;;;;;;5043987;28;20323;-67
2021/12/22 10:12:24;;;;;;;20.67;5.25;;;;;;;;;;5050277;28;20608;-68
2021/12/22 10:14:53;;;;;;;22.38;5.15;;;;;;;;;;5050557;28;20296;-67
2021/12/22 10:17:31;;;;;;;21.52;4.93;;;;;;;;;;5050302;28;20275;-67
2021/12/22 10:19:59;;;;;;;45.75;9.88;;;;;;;;;;5050130;28;20215;-66
2021/12/22 10:22:34;;;;;;;31.75;9.25;;;;;;;;;;5050322;28;20205;-66
2021/12/22 10:25:03;;;;;;;23.85;6.80;;;;;;;;;;5050044;28;20208;-67
2021/12/22 10:27:32;;;;;;;152.57;43.67;;;;;;;;;;5050273;28;20237;-67
2021/12/22 10:29:59;;;;;;;23.25;6.00;;;;;;;;;;5050038;28;20244;-67
2021/12/22 10:32:27;;;;;;;19.02;4.65;;;;;;;;;;5050107;28;20670;-67
2021/12/22 10:34:57;;;;;;;19.83;5.65;;;;;;;;;;5050245;28;20594;-67
2021/12/22 10:37:31;;;;;;;191.55;50.58;;;;;;;;;;5050083;28;20205;-67
2021/12/22 10:39:59;;;;;;;17.05;4.03;;;;;;;;;;5049840;28;20670;-67
2021/12/22 10:42:40;;;;;;;18.45;4.65;;;;;;;;;;5050137;28;20205;-67
2021/12/22 10:45:14;;;;;;;18.73;5.43;;;;;;;;;;5050037;28;20209;-67
2021/12/22 10:50:28;;;;;;;23.77;5.78;;;;;;;;;;5049871;28;20572;-67
2021/12/22 10:52:55;;;;;;;24.98;5.97;;;;;;;;;;5050123;28;20205;-67
2021/12/22 10:55:23;;;;;;;24.35;5.63;;;;;;;;;;5049823;28;20238;-67
2021/12/22 10:57:50;;;;;;;33.92;7.93;;;;;;;;;;5049522;28;20279;-67
2021/12/22 11:00:20;;;;;;;15.68;4.25;;;;;;;;;;5049967;28;20217;-67
2021/12/22 11:03:02;;;;;;;20.80;4.72;;;;;;;;;;5051590;28;20263;-68
2021/12/22 11:05:30;;;;;;;19.85;4.72;;;;;;;;;;5047401;28;20206;-67
2021/12/22 11:07:58;;;;;;;16.88;4.50;;;;;;;;;;5053189;28;20272;-67
2021/12/22 11:10:26;;;;;;;29.67;4.43;;;;;;;;;;5053340;28;20577;-67
2021/12/22 11:13:01;;;;;;;17.70;4.40;;;;;;;;;;5053358;28;20205;-67
2021/12/22 11:15:30;;;;;;;16.67;3.72;;;;;;;;;;5053671;28;20565;-67
2021/12/22 11:17:58;;;;;;;20.95;4.80;;;;;;;;;;5053256;28;20222;-68
2021/12/22 11:20:26;;;;;;;16.38;3.95;;;;;;;;;;5053367;28;20219;-67
2021/12/22 11:22:59;;;;;;;16.90;3.63;;;;;;;;;;5053349;28;20289;-67
2021/12/22 11:25:27;;;;;;;18.90;4.40;;;;;;;;;;5053135;28;20268;-69
2021/12/22 11:27:55;;;;;;;16.40;3.67;;;;;;;;;;5052835;28;20204;-67
2021/12/22 11:30:25;;;;;;;29.05;4.60;;;;;;;;;;5053250;28;20264;-68
2021/12/22 11:32:54;;;;;;;17.60;3.53;;;;;;;;;;5053202;28;20208;-67
2021/12/22 11:35:24;;;;;;;16.13;3.78;;;;;;;;;;5052883;28;20215;-68
2021/12/22 11:37:52;;;;;;;15.30;3.70;;;;;;;;;;5052692;28;20229;-68
2021/12/22 11:40:22;;;;;;;15.75;3.20;;;;;;;;;;5053033;28;20212;-67
2021/12/22 11:42:49;;;;;;;16.02;3.33;;;;;;;;;;5053107;28;20213;-67
2021/12/22 11:45:19;;;;;;;15.50;3.15;;;;;;;;;;5052995;28;20246;-70
2021/12/22 11:47:47;;;;;;;16.30;3.55;;;;;;;;;;5052549;28;20217;-67
2021/12/22 11:50:18;;;;;;;15.77;3.60;;;;;;;;;;5052557;28;20709;-67
2021/12/22 11:52:54;;;;;;;15.48;3.85;;;;;;;;;;5052633;28;20197;-69
2021/12/22 11:55:23;;;;;;;17.67;3.90;;;;;;;;;;5052464;28;20261;-69
2021/12/22 11:57:51;;;;;;;15.88;3.53;;;;;;;;;;5052305;28;20244;-67
2021/12/22 12:00:29;;;;;;;15.43;2.85;;;;;;;;;;5052855;28;20312;-67
2021/12/22 12:02:57;;;;;;;16.95;3.38;;;;;;;;;;5046915;28;20205;-67
2021/12/22 12:05:26;;;;;;;19.92;3.92;;;;;;;;;;5052433;28;20210;-67
2021/12/22 12:07:55;;;;;;;21.38;4.07;;;;;;;;;;5052662;28;20284;-66
2021/12/22 12:10:38;;;;;;;16.98;3.67;;;;;;;;;;5052303;28;20321;-68
2021/12/22 12:13:10;;;;;;;16.23;3.35;;;;;;;;;;5052382;28;20576;-67
2021/12/22 12:21:36;;;;;;;16.05;3.45;;;;;;;;;;5052952;28;20205;-68
2021/12/22 12:21:51;;;;;;;15.48;3.17;;;;;;;;;;5051927;28;20232;-69
2021/12/22 12:24:35;;;;;;;15.50;3.88;;;;;;;;;;5052259;28;20213;-69
2021/12/22 12:27:04;;;;;;;18.83;4.22;;;;;;;;;;5047839;28;20707;-67
2021/12/22 12:29:50;;;;;;;21.58;4.10;;;;;;;;;;5051993;28;20232;-67
2021/12/22 12:32:32;;;;;;;19.52;4.97;;;;;;;;;;5051762;28;20209;-68
2021/12/22 12:35:14;;;;;;;17.05;3.70;;;;;;;;;;5051761;28;20244;-66
2021/12/22 12:37:58;;;;;;;16.23;3.90;;;;;;;;;;5051703;28;20602;-69
2021/12/22 12:40:47;;;;;;;18.98;4.00;;;;;;;;;;5044929;28;20216;-67
2021/12/22 12:43:15;;;;;;;17.88;3.92;;;;;;;;;;5051666;28;20215;-67
2021/12/22 12:45:43;;;;;;;20.33;4.95;;;;;;;;;;5051667;28;20224;-68
2021/12/22 12:48:26;;;;;;;18.77;4.68;;;;;;;;;;5044960;28;20209;-67
2021/12/22 12:51:12;;;;;;;23.17;4.70;;;;;;;;;;5046084;28;20236;-67
2021/12/22 12:53:40;;;;;;;18.77;4.60;;;;;;;;;;5051660;28;20209;-67
2021/12/22 12:56:11;;;;;;;18.83;4.53;;;;;;;;;;5051586;28;20279;-68
2021/12/22 12:58:52;;;;;;;19.95;4.10;;;;;;;;;;5051425;28;20279;-68
2021/12/22 13:01:20;;;;;;;20.35;4.10;;;;;;;;;;5051285;28;20209;-67
2021/12/22 13:03:48;;;;;;;18.65;5.15;;;;;;;;;;5051407;28;20327;-68
2021/12/22 13:06:16;;;;;;;20.95;5.13;;;;;;;;;;5051274;28;20213;-67
2021/12/22 13:08:44;;;;;;;20.25;4.82;;;;;;;;;;5051158;28;20215;-67
2021/12/22 13:11:16;;;;;;;22.33;5.90;;;;;;;;;;5051089;28;20645;-67
2021/12/22 13:16:25;;;;;;;19.60;4.82;;;;;;;;;;5051045;28;20728;-67
2021/12/22 13:18:52;;;;;;;21.73;5.40;;;;;;;;;;5051289;28;20224;-67
2021/12/22 13:21:28;;;;;;;20.20;4.95;;;;;;;;;;5051155;28;20228;-67
2021/12/22 13:23:55;;;;;;;21.20;4.85;;;;;;;;;;5050975;28;20278;-68
2021/12/22 13:26:24;;;;;;;20.80;4.50;;;;;;;;;;5050450;28;20216;-68
2021/12/22 13:28:51;;;;;;;17.95;4.32;;;;;;;;;;5050730;28;20205;-67
2021/12/22 13:31:19;;;;;;;21.02;5.30;;;;;;;;;;5051037;28;20288;-69
2021/12/22 13:34:01;;;;;;;20.70;4.70;;;;;;;;;;5050532;28;20210;-67
2021/12/22 13:36:29;;;;;;;19.08;5.15;;;;;;;;;;5050937;28;20232;-68
2021/12/22 13:38:59;;;;;;;18.80;5.18;;;;;;;;;;5050611;28;20214;-67
2021/12/22 13:41:30;;;;;;;19.92;6.10;;;;;;;;;;5050732;28;20205;-67
2021/12/22 13:43:58;;;;;;;21.80;5.43;;;;;;;;;;5050472;28;20209;-68
2021/12/22 13:46:26;;;;;;;18.00;4.25;;;;;;;;;;5050611;28;20216;-67
2021/12/22 13:48:55;;;;;;;21.75;6.07;;;;;;;;;;5050520;28;20674;-68
2021/12/22 13:51:24;;;;;;;19.40;4.90;;;;;;;;;;5050924;28;20212;-67
2021/12/22 13:53:52;;;;;;;22.70;7.38;;;;;;;;;;5050508;28;20221;-67
2021/12/22 13:56:20;;;;;;;22.55;5.60;;;;;;;;;;5050548;28;20209;-69
2021/12/22 13:58:50;;;;;;;21.67;5.22;;;;;;;;;;5050425;28;20208;-69
2021/12/22 14:01:22;;;;;;;16.30;5.25;;;;;;;;;;5050434;28;20712;-68
2021/12/22 14:03:51;;;;;;;19.90;5.80;;;;;;;;;;5050209;28;20275;-67
2021/12/22 14:06:21;;;;;;;20.67;4.68;;;;;;;;;;5050397;28;20209;-67
2021/12/22 14:09:00;;;;;;;17.90;4.82;;;;;;;;;;5050392;28;20681;-67
2021/12/22 14:11:32;;;;;;;22.08;5.05;;;;;;;;;;5050523;28;20674;-67
2021/12/22 14:14:19;;;;;;;17.67;5.18;;;;;;;;;;5050147;28;20216;-67
2021/12/22 14:16:48;;;;;;;22.02;5.65;;;;;;;;;;5050340;28;20689;-67
2021/12/22 14:19:18;;;;;;;19.20;4.88;;;;;;;;;;5050454;28;20205;-67
2021/12/22 14:21:47;;;;;;;20.52;5.38;;;;;;;;;;5050218;28;20248;-68
2021/12/22 14:24:20;;;;;;;20.17;5.22;;;;;;;;;;5050135;28;20215;-67
2021/12/22 14:26:48;;;;;;;20.33;4.82;;;;;;;;;;5050244;28;20785;-70
2021/12/22 14:29:17;;;;;;;18.60;4.50;;;;;;;;;;5050335;28;20593;-66
2021/12/22 14:32:06;;;;;;;20.25;4.68;;;;;;;;;;5050367;28;20209;-67
2021/12/22 14:34:34;;;;;;;23.30;6.75;;;;;;;;;;5045752;28;20251;-67
2021/12/22 14:37:02;;;;;;;56.42;19.95;;;;;;;;;;5050452;28;20213;-67
2021/12/22 14:39:40;;;;;;;39.85;15.65;;;;;;;;;;5054022;28;20674;-67
2021/12/22 14:42:21;;;;;;;93.03;33.47;;;;;;;;;;5053742;28;20709;-68
2021/12/22 14:44:50;;;;;;;45.97;15.65;;;;;;;;;;5053966;28;20209;-67
2021/12/22 14:47:18;;;;;;;27.60;8.55;;;;;;;;;;5053877;28;20731;-70
2021/12/22 14:49:46;;;;;;;103.28;37.10;;;;;;;;;;5053435;28;20232;-68